createdAt,value
2019-02-21T00:02:02.139Z,2.95
2019-02-21T00:04:32.917Z,2.96
2019-02-21T00:07:03.695Z,2.98
2019-02-21T00:09:34.521Z,2.91
2019-02-21T00:12:05.273Z,2.90
2019-02-21T00:14:36.235Z,2.88
2019-02-21T00:17:07.012Z,2.74
2019-02-21T00:19:37.772Z,2.57
2019-02-21T00:22:08.535Z,2.60
2019-02-21T00:24:40.062Z,2.39
2019-02-21T00:27:10.877Z,2.17
2019-02-21T00:29:41.633Z,2.04
2019-02-21T00:32:12.399Z,2.06
2019-02-21T00:34:43.171Z,2.24
2019-02-21T00:37:13.934Z,2.29
2019-02-21T00:39:44.702Z,2.19
2019-02-21T00:42:15.467Z,2.14
2019-02-21T00:44:46.222Z,1.95
2019-02-21T00:47:16.995Z,1.71
2019-02-21T00:49:47.749Z,1.62
2019-02-21T00:52:18.580Z,1.75
2019-02-21T00:54:49.355Z,1.63
2019-02-21T00:57:20.120Z,1.47
2019-02-21T00:59:51.093Z,1.36
2019-02-21T01:02:21.838Z,1.33
2019-02-21T01:04:52.600Z,1.40
2019-02-21T01:07:23.366Z,1.29
2019-02-21T01:09:54.124Z,1.21
2019-02-21T01:12:24.994Z,1.13
2019-02-21T01:14:55.755Z,1.09
2019-02-21T01:17:26.557Z,1.03
2019-02-21T01:19:57.319Z,1.07
2019-02-21T01:22:28.088Z,1.02
2019-02-21T01:24:58.839Z,1.02
2019-02-21T01:27:29.619Z,0.99
2019-02-21T01:30:00.540Z,0.98
2019-02-21T01:32:31.370Z,0.89
2019-02-21T01:35:02.832Z,0.89
2019-02-21T01:37:33.607Z,0.89
2019-02-21T01:40:06.807Z,0.87
2019-02-21T01:42:37.554Z,0.88
2019-02-21T01:45:08.777Z,0.96
2019-02-21T01:47:39.558Z,1.04
2019-02-21T01:50:10.345Z,1.07
2019-02-21T01:52:41.115Z,1.09
2019-02-21T01:55:11.890Z,1.09
2019-02-21T01:57:42.656Z,1.20
2019-02-21T02:00:13.722Z,1.21
2019-02-21T02:02:44.603Z,1.22
2019-02-21T02:05:15.358Z,1.21
2019-02-21T02:07:46.154Z,1.24
2019-02-21T02:10:16.919Z,1.25
2019-02-21T02:12:47.686Z,1.28
2019-02-21T02:15:18.555Z,1.46
2019-02-21T02:17:49.329Z,1.39
2019-02-21T02:20:20.107Z,1.36
2019-02-21T02:22:51.215Z,1.35
2019-02-21T02:25:21.979Z,1.37
2019-02-21T02:27:52.751Z,1.34
2019-02-21T02:30:23.503Z,1.26
2019-02-21T02:32:54.282Z,1.21
2019-02-21T02:35:25.035Z,1.15
2019-02-21T02:37:55.820Z,1.28
2019-02-21T02:40:26.566Z,1.27
2019-02-21T02:42:57.349Z,1.30
2019-02-21T02:45:28.105Z,1.38
2019-02-21T02:47:58.917Z,1.39
2019-02-21T02:50:29.679Z,1.40
2019-02-21T02:53:00.543Z,1.28
2019-02-21T02:55:31.380Z,1.19
2019-02-21T02:58:02.338Z,1.11
2019-02-21T03:00:33.108Z,1.11
2019-02-21T03:03:03.882Z,1.04
2019-02-21T03:05:34.646Z,1.04
2019-02-21T03:08:05.525Z,0.96
2019-02-21T03:10:36.278Z,0.91
2019-02-21T03:13:07.066Z,0.78
2019-02-21T03:15:37.814Z,0.75
2019-02-21T03:18:08.592Z,0.70
2019-02-21T03:20:39.384Z,0.63
2019-02-21T03:23:10.167Z,0.53
2019-02-21T03:25:40.919Z,0.45
2019-02-21T03:28:11.692Z,0.46
2019-02-21T03:30:42.459Z,0.43
2019-02-21T03:33:13.433Z,0.36
2019-02-21T03:35:44.213Z,0.27
2019-02-21T03:38:14.994Z,0.14
2019-02-21T03:40:45.720Z,0.09
2019-02-21T03:43:16.491Z,-0.07
2019-02-21T03:45:47.255Z,-0.12
2019-02-21T03:48:18.034Z,-0.10
2019-02-21T03:50:48.791Z,0.14
2019-02-21T03:53:19.558Z,0.18
2019-02-21T03:55:50.340Z,0.24
2019-02-21T03:58:21.212Z,0.27
2019-02-21T04:00:51.994Z,0.19
2019-02-21T04:03:22.743Z,0.05
2019-02-21T04:05:53.610Z,-0.10
2019-02-21T04:08:24.385Z,-0.10
2019-02-21T04:10:55.213Z,-0.09
2019-02-21T04:13:25.962Z,-0.15
2019-02-21T04:15:56.838Z,-0.27
2019-02-21T04:18:27.607Z,-0.22
2019-02-21T04:20:58.359Z,-0.09
2019-02-21T04:23:29.124Z,0.05
2019-02-21T04:25:59.882Z,-0.05
2019-02-21T04:28:30.679Z,-0.19
2019-02-21T04:31:01.421Z,-0.31
2019-02-21T04:33:34.249Z,-0.30
2019-02-21T04:36:04.870Z,-0.28
2019-02-21T04:38:35.626Z,-0.38
2019-02-21T04:41:06.411Z,-0.45
2019-02-21T04:43:37.181Z,-0.49
2019-02-21T04:46:07.943Z,-0.49
2019-02-21T04:48:38.715Z,-0.47
2019-02-21T04:51:09.494Z,-0.46
2019-02-21T04:53:40.247Z,-0.53
2019-02-21T04:56:11.022Z,-0.60
2019-02-21T04:58:41.792Z,-0.61
2019-02-21T05:01:12.552Z,-0.50
2019-02-21T05:03:43.320Z,-0.50
2019-02-21T05:06:14.076Z,-0.48
2019-02-21T05:08:44.842Z,-0.43
2019-02-21T05:11:15.604Z,-0.49
2019-02-21T05:13:46.379Z,-0.54
2019-02-21T05:16:17.142Z,-0.55
2019-02-21T05:18:47.914Z,-0.57
2019-02-21T05:21:18.669Z,-0.63
2019-02-21T05:23:49.442Z,-0.63
2019-02-21T05:26:22.111Z,-0.74
2019-02-21T05:28:52.879Z,-0.78
2019-02-21T05:31:43.791Z,-0.71
2019-02-21T05:34:25.616Z,-0.56
2019-02-21T05:37:16.390Z,-0.47
2019-02-21T05:39:49.075Z,-0.35
2019-02-21T05:42:39.897Z,-0.20
2019-02-21T05:45:30.785Z,-0.06
2019-02-21T05:48:03.396Z,0.03
2019-02-21T05:50:36.072Z,0.03
2019-02-21T05:53:25.392Z,0.00
2019-02-21T05:56:03.875Z,-0.03
2019-02-21T05:58:42.104Z,-0.08
2019-02-21T06:01:31.502Z,-0.13
2019-02-21T06:04:06.962Z,-0.23
2019-02-21T06:06:56.008Z,-0.33
2019-02-21T06:09:28.683Z,-0.40
2019-02-21T06:12:01.404Z,-0.45
2019-02-21T06:14:52.420Z,-0.46
2019-02-21T06:17:27.889Z,-0.40
2019-02-21T06:20:12.371Z,-0.35
2019-02-21T06:22:50.827Z,-0.35
2019-02-21T06:25:29.740Z,-0.24
2019-02-21T06:28:03.701Z,-0.12
2019-02-21T06:30:36.391Z,-0.02
2019-02-21T06:33:07.157Z,0.09
2019-02-21T06:35:37.922Z,0.11
2019-02-21T06:38:08.687Z,0.21
2019-02-21T06:40:39.451Z,0.28
2019-02-21T06:43:10.220Z,0.36
2019-02-21T06:45:41.051Z,0.45
2019-02-21T06:48:11.825Z,0.48
2019-02-21T06:50:42.616Z,0.53
2019-02-21T06:53:13.383Z,0.75
2019-02-21T06:55:44.161Z,0.83
2019-02-21T06:58:14.937Z,0.87
2019-02-21T07:00:46.324Z,0.84
2019-02-21T07:03:17.192Z,0.79
2019-02-21T07:05:47.954Z,0.73
2019-02-21T07:08:18.728Z,0.78
2019-02-21T07:10:49.506Z,0.73
2019-02-21T07:13:26.456Z,0.83
2019-02-21T07:15:52.934Z,0.88
2019-02-21T07:18:23.696Z,1.00
2019-02-21T07:20:54.465Z,0.99
2019-02-21T07:23:26.028Z,1.21
2019-02-21T07:25:58.201Z,1.18
2019-02-21T07:28:29.588Z,1.22
2019-02-21T07:31:00.366Z,1.35
2019-02-21T07:33:31.135Z,1.40
2019-02-21T07:36:01.915Z,1.64
2019-02-21T07:38:32.669Z,1.63
2019-02-21T07:41:03.503Z,1.72
2019-02-21T07:43:34.382Z,1.69
2019-02-21T07:46:06.958Z,1.83
2019-02-21T07:48:38.107Z,1.84
2019-02-21T07:51:08.888Z,1.98
2019-02-21T07:53:39.649Z,2.09
2019-02-21T07:56:10.411Z,2.16
2019-02-21T07:58:41.184Z,2.24
2019-02-21T08:01:11.970Z,2.35
2019-02-21T08:03:45.951Z,2.57
2019-02-21T08:06:15.425Z,2.93
2019-02-21T08:08:46.183Z,3.81
2019-02-21T08:11:16.944Z,4.90
2019-02-21T08:13:47.826Z,5.53
2019-02-21T08:16:18.586Z,6.39
2019-02-21T08:18:49.372Z,7.09
2019-02-21T08:21:20.132Z,7.25
2019-02-21T08:23:51.143Z,7.47
2019-02-21T08:26:21.970Z,7.45
2019-02-21T08:28:52.739Z,6.72
2019-02-21T08:31:23.501Z,6.84
2019-02-21T08:33:58.667Z,7.53
2019-02-21T08:36:28.845Z,8.26
2019-02-21T08:38:59.618Z,8.69
2019-02-21T08:41:30.390Z,8.17
2019-02-21T08:44:01.149Z,8.16
2019-02-21T08:46:31.908Z,8.39
2019-02-21T08:49:02.670Z,8.59
2019-02-21T08:51:33.429Z,8.09
2019-02-21T08:54:05.663Z,8.45
2019-02-21T08:56:36.933Z,8.02
2019-02-21T08:59:07.700Z,7.91
2019-02-21T09:01:38.460Z,7.89
2019-02-21T09:04:13.568Z,7.82
2019-02-21T09:06:41.885Z,7.45
2019-02-21T09:09:12.656Z,7.23
2019-02-21T09:11:43.414Z,6.96
2019-02-21T09:14:14.187Z,7.15
2019-02-21T09:16:44.943Z,7.18
2019-02-21T09:19:15.720Z,7.78
2019-02-21T09:21:46.492Z,7.72
2019-02-21T09:24:35.246Z,8.17
2019-02-21T09:26:49.928Z,8.54
2019-02-21T09:29:20.712Z,9.02
2019-02-21T09:31:51.477Z,9.08
2019-02-21T09:34:22.243Z,9.32
2019-02-21T09:36:53.039Z,9.75
2019-02-21T09:39:23.830Z,9.56
2019-02-21T09:41:54.592Z,9.77
2019-02-21T09:44:27.400Z,10.10
2019-02-21T09:46:58.352Z,9.65
2019-02-21T09:49:29.147Z,9.17
2019-02-21T09:51:59.894Z,9.47
2019-02-21T09:54:30.693Z,9.88
2019-02-21T09:57:12.545Z,10.47
2019-02-21T09:59:34.156Z,9.99
2019-02-21T10:02:04.957Z,9.89
2019-02-21T10:04:35.750Z,9.89
2019-02-21T10:07:06.516Z,9.45
2019-02-21T10:09:37.271Z,9.79
2019-02-21T10:12:08.036Z,9.77
2019-02-21T10:14:38.801Z,9.47
2019-02-21T10:17:09.556Z,8.94
2019-02-21T10:19:40.319Z,9.25
2019-02-21T10:22:11.205Z,9.31
2019-02-21T10:24:41.968Z,9.53
2019-02-21T10:27:12.941Z,9.48
2019-02-21T10:29:43.701Z,9.61
2019-02-21T10:32:14.474Z,9.64
2019-02-21T10:34:45.241Z,9.52
2019-02-21T10:37:16.013Z,9.14
2019-02-21T10:39:47.882Z,9.23
2019-02-21T10:42:18.763Z,9.36
2019-02-21T10:44:49.519Z,9.34
2019-02-21T10:47:20.293Z,9.71
2019-02-21T10:49:51.067Z,9.51
2019-02-21T10:52:21.828Z,10.04
2019-02-21T10:54:52.593Z,10.38
2019-02-21T10:57:23.369Z,10.27
2019-02-21T10:59:54.125Z,10.54
2019-02-21T11:02:25.000Z,10.26
2019-02-21T11:04:55.766Z,10.25
2019-02-21T11:07:26.877Z,10.45
2019-02-21T11:09:57.692Z,10.11
2019-02-21T11:12:28.511Z,10.18
2019-02-21T11:14:59.281Z,10.56
2019-02-21T11:17:30.047Z,11.29
2019-02-21T11:20:00.807Z,11.44
2019-02-21T11:22:31.584Z,11.61
2019-02-21T11:25:03.935Z,11.59
2019-02-21T11:27:34.707Z,11.35
2019-02-21T11:30:13.664Z,11.11
2019-02-21T11:32:44.534Z,11.25
2019-02-21T11:35:15.391Z,11.18
2019-02-21T11:37:47.404Z,11.74
2019-02-21T11:40:18.346Z,12.03
2019-02-21T11:42:49.157Z,12.16
2019-02-21T11:45:19.980Z,12.37
2019-02-21T11:47:50.800Z,12.77
2019-02-21T11:50:21.635Z,13.97
2019-02-21T11:52:52.410Z,13.63
2019-02-21T11:55:24.479Z,14.26
2019-02-21T11:57:55.285Z,15.03
2019-02-21T12:00:28.834Z,14.76
2019-02-21T12:02:59.621Z,14.25
2019-02-21T12:05:31.942Z,14.25
2019-02-21T12:08:09.107Z,14.21
2019-02-21T12:10:39.870Z,13.56
2019-02-21T12:13:10.666Z,13.98
2019-02-21T12:15:41.422Z,13.98
2019-02-21T12:18:12.212Z,14.16
2019-02-21T12:20:43.256Z,14.56
2019-02-21T12:23:17.676Z,14.94
2019-02-21T12:25:47.578Z,15.47
2019-02-21T12:28:18.366Z,15.47
2019-02-21T12:30:49.130Z,15.53
2019-02-21T12:33:19.900Z,14.39
2019-02-21T12:35:50.654Z,14.26
2019-02-21T12:38:21.462Z,14.91
2019-02-21T12:40:52.201Z,14.50
2019-02-21T12:43:22.969Z,14.37
2019-02-21T12:45:57.466Z,14.03
2019-02-21T12:48:28.233Z,13.80
2019-02-21T12:50:58.989Z,13.34
2019-02-21T12:53:29.770Z,13.45
2019-02-21T12:56:00.540Z,13.48
2019-02-21T12:58:31.313Z,13.70
2019-02-21T13:01:02.072Z,13.58
2019-02-21T13:03:32.885Z,13.72
2019-02-21T13:06:03.656Z,14.13
2019-02-21T13:08:34.472Z,14.14
2019-02-21T13:11:05.295Z,14.33
2019-02-21T13:13:36.147Z,14.20
2019-02-21T13:16:06.909Z,14.27
2019-02-21T13:18:37.692Z,13.50
2019-02-21T13:21:08.458Z,13.30
2019-02-21T13:23:39.234Z,13.02
2019-02-21T13:26:09.986Z,12.86
2019-02-21T13:28:40.869Z,12.77
2019-02-21T13:31:11.657Z,12.55
2019-02-21T13:33:42.440Z,12.35
2019-02-21T13:36:13.187Z,12.23
2019-02-21T13:38:43.963Z,12.27
2019-02-21T13:41:14.735Z,12.60
2019-02-21T13:43:45.502Z,13.00
2019-02-21T13:46:16.266Z,13.34
2019-02-21T13:48:47.057Z,13.75
2019-02-21T13:51:17.789Z,14.07
2019-02-21T13:53:48.560Z,13.85
2019-02-21T13:56:19.334Z,14.27
2019-02-21T13:58:50.101Z,13.85
2019-02-21T14:01:20.877Z,13.83
2019-02-21T14:03:51.642Z,13.65
2019-02-21T14:06:22.429Z,13.31
2019-02-21T14:08:53.177Z,13.03
2019-02-21T14:11:23.939Z,12.79
2019-02-21T14:13:54.712Z,12.57
2019-02-21T14:16:25.469Z,12.38
2019-02-21T14:18:56.258Z,12.21
2019-02-21T14:21:27.022Z,12.03
2019-02-21T14:23:57.795Z,11.95
2019-02-21T14:26:29.038Z,11.90
2019-02-21T14:28:59.883Z,11.97
2019-02-21T14:31:33.466Z,11.92
2019-02-21T14:34:03.324Z,11.95
2019-02-21T14:36:34.082Z,11.93
2019-02-21T14:39:05.273Z,12.04
2019-02-21T14:41:37.053Z,12.04
2019-02-21T14:44:07.836Z,11.83
2019-02-21T14:46:38.615Z,11.81
2019-02-21T14:49:09.381Z,11.77
2019-02-21T14:51:40.138Z,11.84
2019-02-21T14:54:10.902Z,11.97
2019-02-21T14:56:41.680Z,11.97
2019-02-21T14:59:12.454Z,11.92
2019-02-21T15:01:43.238Z,12.00
2019-02-21T15:04:13.985Z,12.09
2019-02-21T15:06:44.757Z,11.99
2019-02-21T15:09:15.521Z,11.98
2019-02-21T15:11:46.289Z,11.88
2019-02-21T15:14:17.061Z,11.79
2019-02-21T15:16:47.820Z,11.58
2019-02-21T15:19:18.616Z,11.53
2019-02-21T15:21:49.377Z,11.41
2019-02-21T15:24:20.382Z,11.38
2019-02-21T15:26:51.148Z,11.34
2019-02-21T15:29:21.936Z,11.46
2019-02-21T15:31:52.686Z,11.40
2019-02-21T15:34:23.442Z,11.47
2019-02-21T15:36:54.215Z,11.39
2019-02-21T15:39:24.993Z,11.34
2019-02-21T15:41:55.765Z,11.20
2019-02-21T15:44:26.527Z,11.24
2019-02-21T15:46:57.294Z,11.11
2019-02-21T15:49:28.059Z,11.12
2019-02-21T15:51:58.888Z,11.17
2019-02-21T15:54:29.584Z,11.24
2019-02-21T15:57:00.370Z,11.15
2019-02-21T15:59:31.134Z,11.33
2019-02-21T16:02:02.020Z,11.19
2019-02-21T16:04:35.294Z,11.21
2019-02-21T16:07:05.434Z,11.02
2019-02-21T16:09:36.190Z,10.89
2019-02-21T16:12:07.323Z,10.70
2019-02-21T16:14:38.243Z,10.65
2019-02-21T16:17:09.016Z,10.68
2019-02-21T16:19:39.762Z,10.54
2019-02-21T16:22:10.531Z,10.45
2019-02-21T16:24:43.704Z,10.33
2019-02-21T16:27:13.972Z,10.27
2019-02-21T16:29:44.770Z,10.21
2019-02-21T16:32:15.498Z,10.29
2019-02-21T16:34:46.252Z,10.08
2019-02-21T16:37:17.026Z,10.05
2019-02-21T16:39:47.795Z,9.93
2019-02-21T16:42:18.576Z,9.90
2019-02-21T16:44:49.338Z,9.91
2019-02-21T16:47:20.114Z,9.82
2019-02-21T16:49:50.882Z,9.88
2019-02-21T16:52:21.653Z,9.80
2019-02-21T16:54:52.432Z,9.77
2019-02-21T16:57:23.223Z,9.81
2019-02-21T16:59:53.993Z,9.75
2019-02-21T17:02:24.768Z,9.64
2019-02-21T17:04:55.886Z,9.63
2019-02-21T17:07:26.827Z,9.64
2019-02-21T17:09:57.590Z,9.54
2019-02-21T17:12:28.367Z,9.54
2019-02-21T17:14:59.129Z,9.51
2019-02-21T17:17:29.900Z,9.46
2019-02-21T17:20:00.691Z,9.47
2019-02-21T17:22:31.463Z,9.36
2019-02-21T17:25:02.920Z,9.28
2019-02-21T17:27:33.706Z,9.16
2019-02-21T17:30:13.351Z,9.10
2019-02-21T17:32:44.436Z,9.12
2019-02-21T17:35:15.204Z,9.02
2019-02-21T17:37:45.972Z,8.99
2019-02-21T17:40:20.945Z,9.20
2019-02-21T17:42:51.730Z,9.16
2019-02-21T17:45:22.504Z,9.14
2019-02-21T17:47:53.283Z,9.09
2019-02-21T17:50:24.039Z,9.12
2019-02-21T17:52:54.811Z,9.08
2019-02-21T17:55:25.587Z,9.13
2019-02-21T17:57:56.350Z,9.03
2019-02-21T18:00:31.796Z,8.90
2019-02-21T18:03:02.783Z,8.88
2019-02-21T18:05:33.547Z,8.87
2019-02-21T18:08:04.335Z,8.87
2019-02-21T18:10:35.083Z,8.83
2019-02-21T18:13:05.852Z,8.82
2019-02-21T18:15:36.627Z,8.78
2019-02-21T18:18:07.396Z,8.76
2019-02-21T18:20:38.149Z,8.73
2019-02-21T18:23:08.922Z,8.70
2019-02-21T18:25:46.146Z,8.70
2019-02-21T18:28:16.935Z,8.63
2019-02-21T18:30:47.702Z,8.58
2019-02-21T18:33:18.483Z,8.63
2019-02-21T18:35:49.241Z,8.52
2019-02-21T18:38:20.020Z,8.40
2019-02-21T18:40:50.885Z,8.25
2019-02-21T18:43:21.851Z,8.13
2019-02-21T18:45:52.675Z,8.01
2019-02-21T18:48:23.444Z,7.94
2019-02-21T18:50:54.240Z,7.81
2019-02-21T18:53:25.307Z,7.71
2019-02-21T18:55:56.116Z,7.86
2019-02-21T18:58:26.890Z,7.91
2019-02-21T19:00:57.672Z,8.01
2019-02-21T19:03:28.442Z,8.05
2019-02-21T19:05:59.201Z,8.01
2019-02-21T19:08:29.969Z,7.95
2019-02-21T19:11:00.840Z,8.06
2019-02-21T19:13:31.617Z,8.03
2019-02-21T19:16:02.373Z,8.18
2019-02-21T19:18:33.139Z,8.18
2019-02-21T19:21:04.001Z,8.24
2019-02-21T19:23:34.770Z,8.19
2019-02-21T19:26:05.544Z,8.12
2019-02-21T19:28:36.315Z,8.04
2019-02-21T19:31:09.876Z,8.07
2019-02-21T19:33:40.765Z,8.15
2019-02-21T19:36:11.733Z,8.14
2019-02-21T19:38:42.594Z,8.23
2019-02-21T19:41:13.455Z,8.25
2019-02-21T19:43:44.275Z,8.28
2019-02-21T19:46:15.036Z,8.38
2019-02-21T19:48:45.794Z,8.39
2019-02-21T19:51:16.565Z,8.44
2019-02-21T19:53:47.427Z,8.33
2019-02-21T19:56:18.209Z,8.41
2019-02-21T19:58:48.968Z,8.36
2019-02-21T20:01:19.766Z,8.47
2019-02-21T20:03:50.519Z,8.44
2019-02-21T20:06:21.285Z,8.43
2019-02-21T20:08:52.050Z,8.47
2019-02-21T20:11:22.920Z,8.35
2019-02-21T20:13:53.692Z,8.45
2019-02-21T20:16:24.455Z,8.41
2019-02-21T20:18:55.210Z,8.42
2019-02-21T20:21:26.082Z,8.50
2019-02-21T20:23:56.843Z,8.43
2019-02-21T20:26:27.606Z,8.46
2019-02-21T20:28:58.363Z,8.43
2019-02-21T20:31:29.179Z,8.40
2019-02-21T20:33:59.888Z,8.38
2019-02-21T20:36:30.770Z,8.38
2019-02-21T20:39:01.735Z,8.39
2019-02-21T20:41:32.615Z,8.32
2019-02-21T20:44:03.377Z,8.30
2019-02-21T20:46:34.243Z,8.24
2019-02-21T20:49:04.994Z,8.28
2019-02-21T20:51:35.768Z,8.16
2019-02-21T20:54:06.529Z,8.17
2019-02-21T20:56:37.306Z,8.07
2019-02-21T20:59:08.076Z,8.02
2019-02-21T21:01:38.848Z,7.98
2019-02-21T21:04:09.705Z,8.02
2019-02-21T21:06:40.482Z,7.96
2019-02-21T21:09:11.250Z,7.90
2019-02-21T21:11:42.104Z,7.96
2019-02-21T21:14:12.874Z,7.92
2019-02-21T21:16:43.645Z,7.89
2019-02-21T21:19:14.395Z,7.90
2019-02-21T21:21:45.198Z,7.81
2019-02-21T21:24:15.946Z,7.80
2019-02-21T21:26:47.024Z,7.78
2019-02-21T21:29:17.786Z,7.75
2019-02-21T21:31:48.560Z,7.72
2019-02-21T21:34:19.326Z,7.78
2019-02-21T21:36:50.137Z,7.70
2019-02-21T21:39:20.892Z,7.78
2019-02-21T21:41:51.804Z,7.81
2019-02-21T21:44:22.573Z,7.84
2019-02-21T21:46:53.352Z,7.74
2019-02-21T21:49:24.109Z,7.75
2019-02-21T21:51:54.875Z,7.86
2019-02-21T21:54:25.637Z,7.86
2019-02-21T21:56:56.420Z,7.78
2019-02-21T21:59:27.210Z,7.90
2019-02-21T22:01:57.975Z,7.96
2019-02-21T22:04:28.757Z,7.98
2019-02-21T22:06:59.527Z,7.92
2019-02-21T22:09:30.291Z,7.88
2019-02-21T22:12:01.049Z,7.97
2019-02-21T22:14:31.816Z,7.86
2019-02-21T22:17:02.662Z,8.01
2019-02-21T22:19:33.447Z,7.96
2019-02-21T22:22:04.217Z,8.01
2019-02-21T22:24:34.972Z,8.03
2019-02-21T22:27:05.756Z,8.01
2019-02-21T22:29:36.506Z,7.95
2019-02-21T22:32:07.279Z,7.92
2019-02-21T22:34:38.032Z,7.94
2019-02-21T22:37:08.826Z,7.93
2019-02-21T22:39:39.581Z,7.87
2019-02-21T22:42:10.403Z,7.83
2019-02-21T22:44:41.114Z,7.84
2019-02-21T22:47:11.885Z,7.77
2019-02-21T22:49:42.663Z,7.73
2019-02-21T22:52:13.432Z,7.71
2019-02-21T22:54:44.199Z,7.78
2019-02-21T22:57:14.969Z,7.76
2019-02-21T22:59:45.835Z,7.76
2019-02-21T23:02:17.313Z,7.70
2019-02-21T23:04:51.915Z,7.67
2019-02-21T23:07:26.488Z,7.58
2019-02-21T23:09:57.259Z,7.57
2019-02-21T23:12:28.032Z,7.49
2019-02-21T23:14:58.794Z,7.36
2019-02-21T23:17:29.575Z,7.42
2019-02-21T23:20:00.380Z,7.39
2019-02-21T23:22:31.109Z,7.33
2019-02-21T23:25:03.057Z,7.22
2019-02-21T23:27:33.839Z,7.30
2019-02-21T23:30:07.695Z,7.32
2019-02-21T23:32:38.485Z,7.24
2019-02-21T23:35:11.142Z,7.24
2019-02-21T23:37:41.926Z,7.20
2019-02-21T23:40:12.686Z,7.28
2019-02-21T23:42:43.464Z,7.26
2019-02-21T23:45:14.221Z,7.30
2019-02-21T23:47:49.660Z,7.28
2019-02-21T23:50:17.651Z,7.34
2019-02-21T23:52:48.433Z,7.33
2019-02-21T23:55:19.194Z,7.32
2019-02-21T23:57:50.476Z,7.37
